createdAt,value
2023-04-12T00:00:23.947Z,1.75
2023-04-12T00:02:54.298Z,1.52
2023-04-12T00:05:22.864Z,1.33
2023-04-12T00:07:53.129Z,1.23
2023-04-12T00:10:19.914Z,2.25
2023-04-12T00:12:46.904Z,1.70
2023-04-12T00:15:13.995Z,1.30
2023-04-12T00:17:40.956Z,1.48
2023-04-12T00:20:13.986Z,1.52
2023-04-12T00:22:46.515Z,1.30
2023-04-12T00:25:13.215Z,2.15
2023-04-12T00:27:39.883Z,1.35
2023-04-12T00:30:08.366Z,1.52
2023-04-12T00:32:35.369Z,1.50
2023-04-12T00:35:02.366Z,1.77
2023-04-12T00:37:31.281Z,1.60
2023-04-12T00:39:57.926Z,1.23
2023-04-12T00:42:27.647Z,1.33
2023-04-12T00:44:54.304Z,1.48
2023-04-12T00:47:21.183Z,1.23
2023-04-12T00:49:50.432Z,1.60
2023-04-12T00:52:19.449Z,1.30
2023-04-12T00:54:46.324Z,1.85
2023-04-12T00:57:15.507Z,2.13
2023-04-12T00:59:42.256Z,2.35
2023-04-12T01:02:09.558Z,1.83
2023-04-12T01:04:38.014Z,2.10
2023-04-12T01:07:18.471Z,1.88
2023-04-12T01:10:00.920Z,2.28
2023-04-12T01:12:57.676Z,1.75
2023-04-12T01:15:26.463Z,1.80
2023-04-12T01:17:59.186Z,1.85
2023-04-12T01:20:31.698Z,1.77
2023-04-12T01:23:36.384Z,1.70
2023-04-12T01:28:44.580Z,1.83
2023-04-12T01:31:15.551Z,1.88
2023-04-12T01:33:45.299Z,2.13
2023-04-12T01:36:16.756Z,2.05
2023-04-12T01:38:44.763Z,2.88
2023-04-12T01:41:12.042Z,2.20
2023-04-12T01:43:46.092Z,2.60
2023-04-12T01:46:16.786Z,2.50
2023-04-12T01:48:50.693Z,2.60
2023-04-12T01:54:00.431Z,2.30
2023-04-12T01:56:31.631Z,2.60
2023-04-12T01:59:00.842Z,2.38
2023-04-12T02:01:29.280Z,2.60
2023-04-12T02:04:02.243Z,2.38
2023-04-12T02:06:29.689Z,2.38
2023-04-12T02:09:08.362Z,2.60
2023-04-12T02:11:35.056Z,2.70
2023-04-12T02:14:01.804Z,2.40
2023-04-12T02:16:32.402Z,2.53
2023-04-12T02:19:02.033Z,2.67
2023-04-12T02:21:38.966Z,2.83
2023-04-12T02:24:05.724Z,2.25
2023-04-12T02:26:34.789Z,2.28
2023-04-12T02:29:04.252Z,2.88
2023-04-12T02:31:30.925Z,2.65
2023-04-12T02:33:57.906Z,3.55
2023-04-12T02:36:27.103Z,3.88
2023-04-12T02:38:54.433Z,2.38
2023-04-12T02:41:22.128Z,2.95
2023-04-12T02:43:49.002Z,2.40
2023-04-12T02:46:19.562Z,2.70
2023-04-12T02:48:46.472Z,2.80
2023-04-12T02:51:15.839Z,2.90
2023-04-12T02:53:42.932Z,3.42
2023-04-12T02:56:12.954Z,2.80
2023-04-12T02:58:39.696Z,2.22
2023-04-12T03:01:07.748Z,3.05
2023-04-12T03:03:35.795Z,3.13
2023-04-12T03:06:03.390Z,2.83
2023-04-12T03:08:32.271Z,2.80
2023-04-12T03:10:58.929Z,3.00
2023-04-12T03:13:25.673Z,3.28
2023-04-12T03:15:57.467Z,3.30
2023-04-12T03:18:24.210Z,2.90
2023-04-12T03:20:52.465Z,2.90
2023-04-12T03:23:20.202Z,2.60
2023-04-12T03:25:49.258Z,3.55
2023-04-12T03:28:21.694Z,3.65
2023-04-12T03:30:48.373Z,3.92
2023-04-12T03:33:15.070Z,3.97
2023-04-12T03:35:43.993Z,3.70
2023-04-12T03:38:10.696Z,4.05
2023-04-12T03:40:37.315Z,4.60
2023-04-12T03:43:03.977Z,4.10
2023-04-12T03:45:30.741Z,4.57
2023-04-12T03:47:57.451Z,4.60
2023-04-12T03:50:24.161Z,4.63
2023-04-12T03:52:53.579Z,4.40
2023-04-12T03:55:20.316Z,4.43
2023-04-12T03:57:49.272Z,4.60
2023-04-12T04:00:16.364Z,4.53
2023-04-12T04:02:47.239Z,4.03
2023-04-12T04:05:14.118Z,4.78
2023-04-12T04:07:41.091Z,4.32
2023-04-12T04:10:08.138Z,4.28
2023-04-12T04:12:34.804Z,4.80
2023-04-12T04:15:01.498Z,4.68
2023-04-12T04:17:30.434Z,4.40
2023-04-12T04:19:57.162Z,4.53
2023-04-12T04:22:26.330Z,4.43
2023-04-12T04:24:52.991Z,4.22
2023-04-12T04:27:20.556Z,4.20
2023-04-12T04:29:47.314Z,4.03
2023-04-12T04:32:16.619Z,3.75
2023-04-12T04:34:43.511Z,3.58
2023-04-12T04:37:10.499Z,4.53
2023-04-12T04:39:37.369Z,4.32
2023-04-12T04:42:06.564Z,3.95
2023-04-12T04:44:36.103Z,3.65
2023-04-12T04:47:03.588Z,3.33
2023-04-12T04:49:33.832Z,3.25
2023-04-12T04:52:04.073Z,3.08
2023-04-12T04:54:33.864Z,3.30
2023-04-12T04:57:01.562Z,2.78
2023-04-12T04:59:28.299Z,2.90
2023-04-12T05:01:55.039Z,2.88
2023-04-12T05:04:21.841Z,3.47
2023-04-12T05:06:48.533Z,2.60
2023-04-12T05:09:15.321Z,2.60
2023-04-12T05:11:41.951Z,2.80
2023-04-12T05:14:10.224Z,3.60
2023-04-12T05:16:38.815Z,3.20
2023-04-12T05:19:05.553Z,2.63
2023-04-12T05:21:33.750Z,2.50
2023-04-12T05:24:00.681Z,2.42
2023-04-12T05:26:27.691Z,2.38
2023-04-12T05:28:54.448Z,2.35
2023-04-12T05:31:21.281Z,2.45
2023-04-12T05:33:49.441Z,2.60
2023-04-12T05:36:18.250Z,2.47
2023-04-12T05:38:47.183Z,4.15
2023-04-12T05:41:13.944Z,2.30
2023-04-12T05:43:42.821Z,2.35
2023-04-12T05:46:09.587Z,3.35
2023-04-12T05:48:38.406Z,3.03
2023-04-12T05:51:05.660Z,3.38
2023-04-12T05:53:32.771Z,3.25
2023-04-12T05:55:59.480Z,3.20
2023-04-12T05:58:26.226Z,3.92
2023-04-12T06:00:55.700Z,3.67
2023-04-12T06:03:25.856Z,4.03
2023-04-12T06:05:52.928Z,4.25
2023-04-12T06:08:19.943Z,4.65
2023-04-12T06:10:46.792Z,4.40
2023-04-12T06:13:13.452Z,4.50
2023-04-12T06:15:40.185Z,4.75
2023-04-12T06:18:09.708Z,4.63
2023-04-12T06:20:40.240Z,4.53
2023-04-12T06:23:07.026Z,5.15
2023-04-12T06:25:34.161Z,4.60
2023-04-12T06:28:03.236Z,5.75
2023-04-12T06:30:29.892Z,5.25
2023-04-12T06:32:59.394Z,5.47
2023-04-12T06:35:26.217Z,5.20
2023-04-12T06:37:55.378Z,5.40
2023-04-12T06:40:22.140Z,5.28
2023-04-12T06:42:48.817Z,4.40
2023-04-12T06:45:15.547Z,5.43
2023-04-12T06:47:42.303Z,4.70
2023-04-12T06:50:09.533Z,4.53
2023-04-12T06:52:36.165Z,4.57
2023-04-12T06:55:02.912Z,4.30
2023-04-12T06:57:31.732Z,4.00
2023-04-12T06:59:58.393Z,4.15
2023-04-12T07:02:25.370Z,4.07
2023-04-12T07:04:54.097Z,4.50
2023-04-12T07:07:21.298Z,3.70
2023-04-12T07:09:48.118Z,4.25
2023-04-12T07:12:14.854Z,4.25
2023-04-12T07:14:42.417Z,4.03
2023-04-12T07:17:13.242Z,3.40
2023-04-12T07:19:42.239Z,4.30
2023-04-12T07:22:13.481Z,3.65
2023-04-12T07:24:40.817Z,3.53
2023-04-12T07:27:07.452Z,3.58
2023-04-12T07:29:34.484Z,3.45
2023-04-12T07:32:03.264Z,3.72
2023-04-12T07:34:30.278Z,3.33
2023-04-12T07:36:57.072Z,3.58
2023-04-12T07:39:23.742Z,3.40
2023-04-12T07:41:50.944Z,3.55
2023-04-12T07:44:17.644Z,4.18
2023-04-12T07:46:44.347Z,3.78
2023-04-12T07:49:13.193Z,3.85
2023-04-12T07:51:39.874Z,3.83
2023-04-12T07:54:06.646Z,4.03
2023-04-12T07:56:38.704Z,4.57
2023-04-12T07:59:07.970Z,4.50
2023-04-12T08:01:34.735Z,3.58
2023-04-12T08:04:02.288Z,3.50
2023-04-12T08:06:31.184Z,3.42
2023-04-12T08:09:01.812Z,3.17
2023-04-12T08:11:30.955Z,3.10
2023-04-12T08:13:57.822Z,3.10
2023-04-12T08:16:24.878Z,2.90
2023-04-12T08:18:53.694Z,3.38
2023-04-12T08:21:20.507Z,3.75
2023-04-12T08:23:47.142Z,3.78
2023-04-12T08:26:13.924Z,3.28
2023-04-12T08:28:40.727Z,3.38
2023-04-12T08:31:08.463Z,3.75
2023-04-12T08:33:35.277Z,3.70
2023-04-12T08:36:04.553Z,5.45
2023-04-12T08:38:45.055Z,3.80
2023-04-12T08:41:12.937Z,4.10
2023-04-12T08:43:47.522Z,4.20
2023-04-12T08:46:15.896Z,4.07
2023-04-12T08:48:48.831Z,4.20
2023-04-12T08:51:18.294Z,4.07
2023-04-12T08:53:45.494Z,4.57
2023-04-12T08:56:15.820Z,4.43
2023-04-12T08:58:46.633Z,4.30
2023-04-12T09:01:17.954Z,3.92
2023-04-12T09:03:46.421Z,4.03
2023-04-12T09:06:18.150Z,3.88
2023-04-12T09:08:54.877Z,4.28
2023-04-12T09:11:26.564Z,4.25
2023-04-12T09:13:55.275Z,4.95
2023-04-12T09:16:41.718Z,4.65
2023-04-12T09:19:09.334Z,4.72
2023-04-12T09:21:37.075Z,4.32
2023-04-12T09:24:14.789Z,4.90
2023-04-12T09:26:42.513Z,4.97
2023-04-12T09:29:25.538Z,5.28
2023-04-12T09:31:58.390Z,5.15
2023-04-12T09:34:26.608Z,5.40
2023-04-12T09:36:54.530Z,5.05
2023-04-12T09:39:33.756Z,5.28
2023-04-12T09:42:31.706Z,4.85
2023-04-12T09:45:02.890Z,5.30
2023-04-12T09:47:42.417Z,5.60
2023-04-12T09:50:09.562Z,5.05
2023-04-12T09:52:38.398Z,4.72
2023-04-12T09:55:14.551Z,5.35
2023-04-12T09:57:42.955Z,5.15
2023-04-12T10:00:17.318Z,4.57
2023-04-12T10:02:52.251Z,5.20
2023-04-12T10:05:21.636Z,4.93
2023-04-12T10:07:49.977Z,4.75
2023-04-12T10:10:20.576Z,4.28
2023-04-12T10:12:48.877Z,5.25
2023-04-12T10:15:21.004Z,4.78
2023-04-12T10:17:51.353Z,4.50
2023-04-12T10:20:19.515Z,5.10
2023-04-12T10:22:51.061Z,4.60
2023-04-12T10:25:22.933Z,5.65
2023-04-12T10:27:49.893Z,5.40
2023-04-12T10:30:27.258Z,5.35
2023-04-12T10:33:02.951Z,5.18
2023-04-12T10:35:48.969Z,5.20
2023-04-12T10:38:18.950Z,5.45
2023-04-12T10:41:09.041Z,5.90
2023-04-12T10:43:36.083Z,4.78
2023-04-12T10:46:06.674Z,5.00
2023-04-12T10:48:37.728Z,4.80
2023-04-12T10:51:28.035Z,4.97
2023-04-12T10:54:17.687Z,5.53
2023-04-12T10:56:52.601Z,5.03
2023-04-12T10:59:20.834Z,5.05
2023-04-12T11:02:11.665Z,5.32
2023-04-12T11:04:38.742Z,4.43
2023-04-12T11:07:11.545Z,5.03
2023-04-12T11:09:43.288Z,4.33
2023-04-12T11:12:13.910Z,4.60
2023-04-12T11:14:51.616Z,5.50
2023-04-12T11:17:22.745Z,4.63
2023-04-12T11:19:55.752Z,4.43
2023-04-12T11:22:27.305Z,4.35
2023-04-12T11:24:56.447Z,4.40
2023-04-12T11:27:27.383Z,3.75
2023-04-12T11:29:56.302Z,4.10
2023-04-12T11:32:30.788Z,4.95
2023-04-12T11:35:01.073Z,4.30
2023-04-12T11:37:30.378Z,4.25
2023-04-12T11:39:58.699Z,4.20
2023-04-12T11:42:29.334Z,4.07
2023-04-12T11:45:00.049Z,3.88
2023-04-12T11:47:32.380Z,5.05
2023-04-12T11:49:59.946Z,3.58
2023-04-12T11:52:34.808Z,4.32
2023-04-12T11:55:06.559Z,3.60
2023-04-12T11:57:36.475Z,3.45
2023-04-12T12:00:06.486Z,3.95
2023-04-12T12:02:41.195Z,3.60
2023-04-12T12:05:15.949Z,3.35
2023-04-12T12:07:43.146Z,4.07
2023-04-12T12:10:18.485Z,4.18
2023-04-12T12:12:50.959Z,3.63
2023-04-12T12:15:17.788Z,3.95
2023-04-12T12:17:44.621Z,3.53
2023-04-12T12:20:24.383Z,3.70
2023-04-12T12:22:51.129Z,4.13
2023-04-12T12:25:21.020Z,4.47
2023-04-12T12:27:48.626Z,3.97
2023-04-12T12:30:20.357Z,3.90
2023-04-12T12:32:52.485Z,4.28
2023-04-12T12:35:19.383Z,4.05
2023-04-12T12:37:55.835Z,3.70
2023-04-12T12:40:32.198Z,4.13
2023-04-12T12:42:59.445Z,4.32
2023-04-12T12:45:28.585Z,4.35
2023-04-12T12:48:03.628Z,4.70
2023-04-12T12:50:33.330Z,4.50
2023-04-12T12:53:01.349Z,4.07
2023-04-12T12:55:31.473Z,4.20
2023-04-12T12:58:06.782Z,3.85
2023-04-12T13:00:36.657Z,3.65
2023-04-12T13:03:03.941Z,3.20
2023-04-12T13:05:31.264Z,3.65
2023-04-12T13:07:57.947Z,3.40
2023-04-12T13:10:26.437Z,2.67
2023-04-12T13:12:53.208Z,1.98
2023-04-12T13:15:23.258Z,2.10
2023-04-12T13:17:56.807Z,2.35
2023-04-12T13:20:23.577Z,2.10
2023-04-12T13:22:54.281Z,2.00
2023-04-12T13:25:21.400Z,2.40
2023-04-12T13:27:51.599Z,2.20
2023-04-12T13:30:19.034Z,2.15
2023-04-12T13:32:50.682Z,2.00
2023-04-12T13:35:18.111Z,1.85
2023-04-12T13:37:44.780Z,1.15
2023-04-12T13:40:11.833Z,0.60
2023-04-12T13:42:43.350Z,0.50
2023-04-12T13:45:11.316Z,0.60
2023-04-12T13:47:38.890Z,0.60
2023-04-12T13:50:06.279Z,0.40
2023-04-12T13:52:32.984Z,0.55
2023-04-12T13:54:59.738Z,0.40
2023-04-12T13:57:26.460Z,0.57
2023-04-12T13:59:55.909Z,0.60
2023-04-12T14:02:22.697Z,0.50
2023-04-12T14:04:56.810Z,0.75
2023-04-12T14:07:24.273Z,0.52
2023-04-12T14:09:51.216Z,0.45
2023-04-12T14:12:20.506Z,0.40
2023-04-12T14:14:47.334Z,1.42
2023-04-12T14:17:14.085Z,0.50
2023-04-12T14:19:40.945Z,0.50
2023-04-12T14:22:07.744Z,0.57
2023-04-12T14:24:34.490Z,0.50
2023-04-12T14:27:02.210Z,0.40
2023-04-12T14:29:29.011Z,0.30
2023-04-12T14:31:55.797Z,0.20
2023-04-12T14:34:22.500Z,0.40
2023-04-12T14:36:49.173Z,0.60
2023-04-12T14:39:16.344Z,0.50
2023-04-12T14:41:43.204Z,0.43
2023-04-12T14:44:12.143Z,0.40
2023-04-12T14:46:39.112Z,0.28
2023-04-12T14:49:06.057Z,0.30
2023-04-12T14:51:34.900Z,0.30
2023-04-12T14:54:01.844Z,0.40
2023-04-12T14:56:31.023Z,0.50
2023-04-12T14:58:58.309Z,0.30
2023-04-12T15:01:25.870Z,0.35
2023-04-12T15:03:53.471Z,0.30
2023-04-12T15:06:27.363Z,0.28
2023-04-12T15:08:55.445Z,0.30
2023-04-12T15:11:26.779Z,0.30
2023-04-12T15:13:55.006Z,0.30
2023-04-12T15:16:24.984Z,0.30
2023-04-12T15:18:52.145Z,0.40
2023-04-12T15:21:19.333Z,0.38
2023-04-12T15:23:47.420Z,0.70
2023-04-12T15:26:14.477Z,0.30
2023-04-12T15:28:41.941Z,0.32
2023-04-12T15:31:09.672Z,0.40
2023-04-12T15:33:37.982Z,0.28
2023-04-12T15:36:05.609Z,0.50
2023-04-12T15:38:40.043Z,0.22
2023-04-12T15:41:07.549Z,0.32
2023-04-12T15:43:34.920Z,0.20
2023-04-12T15:46:04.181Z,0.30
2023-04-12T15:48:31.252Z,0.30
2023-04-12T15:51:00.310Z,0.30
2023-04-12T15:53:27.686Z,0.30
2023-04-12T15:55:55.513Z,0.30
2023-04-12T15:58:27.324Z,0.35
2023-04-12T16:00:57.228Z,0.30
2023-04-12T16:03:26.069Z,0.50
2023-04-12T16:05:53.849Z,0.45
2023-04-12T16:08:23.857Z,0.30
2023-04-12T16:10:53.741Z,0.20
2023-04-12T16:13:21.351Z,0.50
2023-04-12T16:15:48.589Z,0.40
2023-04-12T16:18:17.144Z,0.40
2023-04-12T16:20:44.203Z,0.32
2023-04-12T16:23:11.560Z,0.40
2023-04-12T16:25:40.919Z,0.55
2023-04-12T16:28:08.205Z,0.30
2023-04-12T16:30:35.484Z,0.20
2023-04-12T16:33:02.864Z,0.40
2023-04-12T16:35:29.725Z,0.60
2023-04-12T16:37:56.573Z,0.40
2023-04-12T16:40:25.886Z,0.35
2023-04-12T16:42:52.710Z,0.40
2023-04-12T16:45:19.721Z,0.32
2023-04-12T16:47:47.600Z,0.50
2023-04-12T16:50:15.547Z,0.40
2023-04-12T16:52:45.003Z,0.68
2023-04-12T16:55:12.445Z,0.30
2023-04-12T16:57:41.296Z,0.20
2023-04-12T17:00:22.658Z,0.40
2023-04-12T17:02:54.074Z,0.40
2023-04-12T17:05:22.425Z,0.30
2023-04-12T17:07:51.463Z,0.40
2023-04-12T17:10:20.370Z,0.40
2023-04-12T17:12:52.908Z,0.40
2023-04-12T17:15:23.431Z,0.50
2023-04-12T17:17:52.435Z,0.50
2023-04-12T17:20:22.381Z,0.40
2023-04-12T17:22:50.131Z,0.20
2023-04-12T17:25:21.211Z,0.30
2023-04-12T17:27:49.791Z,0.20
2023-04-12T17:30:17.817Z,0.30
2023-04-12T17:32:48.424Z,0.30
2023-04-12T17:35:17.466Z,0.38
2023-04-12T17:37:44.439Z,0.35
2023-04-12T17:40:12.347Z,0.43
2023-04-12T17:42:41.463Z,0.38
2023-04-12T17:45:12.451Z,0.40
2023-04-12T17:47:40.509Z,0.40
2023-04-12T17:50:11.186Z,0.40
2023-04-12T17:52:38.795Z,0.40
2023-04-12T17:55:09.354Z,0.35
2023-04-12T17:57:36.556Z,0.40
2023-04-12T18:00:05.810Z,0.40
2023-04-12T18:02:32.962Z,0.50
2023-04-12T18:05:03.417Z,0.60
2023-04-12T18:07:32.697Z,0.40
2023-04-12T18:10:02.378Z,0.40
2023-04-12T18:12:29.515Z,0.50
2023-04-12T18:14:56.744Z,0.60
2023-04-12T18:17:25.904Z,0.57
2023-04-12T18:19:54.124Z,0.50
2023-04-12T18:22:23.730Z,0.40
2023-04-12T18:24:50.889Z,0.50
2023-04-12T18:27:17.975Z,0.40
2023-04-12T18:29:44.906Z,0.52
2023-04-12T18:32:12.655Z,0.45
2023-04-12T18:34:39.755Z,0.40
2023-04-12T18:37:07.694Z,0.45
2023-04-12T18:39:35.653Z,0.60
2023-04-12T18:42:03.174Z,0.68
2023-04-12T18:44:32.668Z,0.65
2023-04-12T18:46:59.672Z,0.80
2023-04-12T18:49:26.648Z,1.00
2023-04-12T18:51:58.215Z,0.80
2023-04-12T18:54:27.830Z,1.23
2023-04-12T18:56:57.953Z,0.70
2023-04-12T18:59:25.260Z,0.85
2023-04-12T19:01:52.566Z,0.70
2023-04-12T19:04:19.926Z,0.70
2023-04-12T19:06:47.491Z,0.90
2023-04-12T19:09:14.876Z,1.00
2023-04-12T19:11:42.238Z,0.50
2023-04-12T19:14:09.473Z,0.50
2023-04-12T19:16:36.770Z,0.35
2023-04-12T19:19:03.924Z,0.68
2023-04-12T19:21:32.094Z,0.50
2023-04-12T19:23:59.827Z,0.40
2023-04-12T19:26:28.300Z,0.60
2023-04-12T19:28:58.302Z,0.60
2023-04-12T19:31:26.293Z,1.30
2023-04-12T19:33:55.522Z,0.93
2023-04-12T19:36:24.596Z,1.08
2023-04-12T19:38:54.372Z,0.70
2023-04-12T19:41:21.821Z,0.80
2023-04-12T19:43:49.096Z,0.50
2023-04-12T19:46:17.509Z,0.82
2023-04-12T19:48:45.629Z,0.90
2023-04-12T19:51:13.451Z,1.02
2023-04-12T19:53:40.578Z,0.90
2023-04-12T19:56:08.310Z,1.00
2023-04-12T19:58:35.106Z,0.98
2023-04-12T20:01:03.020Z,0.90
2023-04-12T20:03:32.932Z,0.70
2023-04-12T20:06:03.601Z,0.50
2023-04-12T20:08:33.039Z,1.00
2023-04-12T20:11:02.671Z,1.00
2023-04-12T20:13:30.757Z,0.98
2023-04-12T20:16:00.721Z,1.10
2023-04-12T20:18:30.345Z,1.10
2023-04-12T20:20:59.325Z,1.10
2023-04-12T20:23:26.526Z,0.90
2023-04-12T20:25:55.782Z,0.80
2023-04-12T20:28:23.300Z,0.77
2023-04-12T20:30:50.081Z,0.80
2023-04-12T20:33:19.919Z,0.60
2023-04-12T20:35:48.993Z,0.80
2023-04-12T20:38:18.543Z,0.70
2023-04-12T20:40:46.228Z,0.80
2023-04-12T20:43:12.883Z,0.75
2023-04-12T20:45:39.617Z,0.70
2023-04-12T20:48:06.420Z,0.50
2023-04-12T20:50:33.348Z,0.50
2023-04-12T20:53:00.096Z,0.80
2023-04-12T20:55:32.638Z,0.50
2023-04-12T20:58:00.818Z,0.70
2023-04-12T21:00:31.118Z,0.60
2023-04-12T21:02:58.396Z,0.30
2023-04-12T21:05:27.233Z,0.50
2023-04-12T21:07:54.667Z,0.47
2023-04-12T21:10:22.284Z,0.40
2023-04-12T21:12:50.012Z,0.50
2023-04-12T21:15:21.619Z,0.40
2023-04-12T21:17:50.624Z,0.30
2023-04-12T21:20:19.682Z,0.50
2023-04-12T21:22:48.615Z,0.50
2023-04-12T21:25:18.330Z,0.85
2023-04-12T21:27:50.114Z,0.85
2023-04-12T21:30:17.278Z,0.70
2023-04-12T21:32:44.223Z,0.80
2023-04-12T21:35:13.793Z,0.70
2023-04-12T21:37:43.130Z,0.52
2023-04-12T21:40:10.392Z,0.60
2023-04-12T21:42:37.544Z,0.70
2023-04-12T21:45:11.000Z,0.80
2023-04-12T21:47:40.650Z,0.60
2023-04-12T21:50:08.873Z,0.70
2023-04-12T21:52:38.071Z,1.00
2023-04-12T21:55:05.118Z,0.55
2023-04-12T21:57:32.883Z,0.80
2023-04-12T21:59:59.779Z,0.80
2023-04-12T22:02:29.193Z,1.05
2023-04-12T22:04:56.334Z,0.55
2023-04-12T22:07:23.065Z,0.80
2023-04-12T22:09:53.480Z,0.80
2023-04-12T22:12:25.388Z,0.73
2023-04-12T22:14:52.163Z,0.60
2023-04-12T22:17:22.177Z,0.90
2023-04-12T22:19:48.978Z,0.60
2023-04-12T22:22:17.753Z,0.80
2023-04-12T22:24:44.593Z,0.80
2023-04-12T22:27:11.253Z,0.70
2023-04-12T22:29:38.389Z,0.80
2023-04-12T22:32:08.104Z,0.80
2023-04-12T22:34:37.001Z,0.77
2023-04-12T22:37:04.314Z,0.82
2023-04-12T22:39:33.987Z,0.93
2023-04-12T22:42:00.704Z,0.73
2023-04-12T22:44:29.025Z,0.90
2023-04-12T22:46:56.753Z,0.80
2023-04-12T22:49:30.479Z,0.85
2023-04-12T22:51:57.714Z,0.85
2023-04-12T22:54:27.289Z,0.80
2023-04-12T22:56:54.696Z,0.88
2023-04-12T22:59:22.911Z,1.00
2023-04-12T23:01:52.144Z,1.17
2023-04-12T23:04:19.178Z,0.77
2023-04-12T23:06:47.251Z,0.90
2023-04-12T23:09:16.169Z,0.63
2023-04-12T23:11:45.289Z,0.57
2023-04-12T23:14:12.875Z,0.90
2023-04-12T23:16:51.508Z,0.98
2023-04-12T23:19:18.236Z,0.65
2023-04-12T23:21:44.876Z,0.60
2023-04-12T23:24:12.091Z,0.80
2023-04-12T23:26:39.344Z,0.70
2023-04-12T23:29:11.394Z,0.70
2023-04-12T23:31:38.226Z,0.70
2023-04-12T23:34:06.206Z,0.57
2023-04-12T23:36:33.996Z,0.60
2023-04-12T23:39:01.996Z,0.43
2023-04-12T23:41:31.491Z,0.73
2023-04-12T23:44:01.192Z,0.70
2023-04-12T23:46:30.719Z,0.90
2023-04-12T23:48:57.512Z,0.82
2023-04-12T23:51:24.173Z,0.63
2023-04-12T23:53:50.946Z,0.80
2023-04-12T23:56:19.920Z,0.52
2023-04-12T23:58:47.108Z,1.10
